Atlantic Beach, FL

1:28 AM EST on February 24, 2017 (GMT -0500)
Atlantic BCH. Linkside Dr. Florida 32233 | | Change Station
Active Advisory: Coastal Hazard Statement Active Notice: Coastal Hazard Statement

Elev 10 ft 30.34 °N, 81.41 °W | Updated 12 seconds ago

Partly Cloudy
Partly Cloudy
65.1 °F
Feels Like 65.1 °F
N
1.1
Wind Variable Wind from NNW
Gusts 2.5 mph

Today
High -- | Low -- °F
--% Chance of Precip.
Yesterday
High -- | Low -- °F
Precip. -- in
Pressure 29.81 in
Visibility 7.0 miles
Clouds Mostly Cloudy 2400 ft
Dew Point 64 °F
Humidity 95%
Rainfall 0.00 in
Snow Depth Not available.
6:56 AM 6:21 PM
Waning Crescent, 6% visible
SPECI KNRB 240604Z AUTO 01009KT 7SM BKN024 18/17 A2981 RMK AO2 T01830167
Pressure 29.81 in
Visibility 7.0 miles
Clouds Mostly Cloudy 2400 ft
Dew Point 64 °F
Humidity 95%
Rainfall 0.00 in
Snow Depth Not available.
6:56 AM 6:21 PM
Waning Crescent, 6% visible
SPECI KNRB 240604Z AUTO 01009KT 7SM BKN024 18/17 A2981 RMK AO2 T01830167

Get Your Daily Forecast Email!

Thanks for signing up!

Be on the lookout for a verification email in your inbox.

You'll start receiving the daily forecast at 8 AM.

×

10-Day Weather Forecast

Almanac

Astronomy

Feb. 24, 2017 Rise Set
Actual Time
Civil Twilight
Nautical Twilight
Astronomical Twilight
Moon
Length of Visible Light
Length of Day
Tomorrow will be .
, % of the Moon is Illuminated

Today's Extremes

State Highs State Lows

Community

WunderPhotos

Upload Photos

1,962,540 photos uploaded!

WunderBlog® & News

Nearby

Air Quality

  Air Quality AQ Index Pollutant
Not available.

Snow Depth

Station Depth Elevation

Earthquake Activity

City Distance Mag. Time & Date
Minimum magnitude displayed is 2.5.

Coastal Water Temperatures

Place Temperature

Stations

Nearby Weather Stations

Station Location Temp. Windchill Dew Point Humidity Wind Precip. Elev Updated Type
                   

Watches & Warnings

Coastal Hazard Statement
Issued: 8:37 PM EST Feb. 23, 2017 – National Weather Service

... High rip current risk remains in effect through Friday evening...

* timing... through Friday evening.

Precautionary/preparedness actions...

There is a high risk of rip currents.

Rip currents will be life threatening.

Rip currents are powerful channels of water flowing quickly away
from shore, which occur most often at low spots or breaks in The
Sandbar and in the vicinity of structures such as groins, jetties
and piers. Heed the advice of lifeguards and the beach patrol.
Pay attention to flags and posted signs.

Swim near a lifeguard. If caught in a rip current remain calm.
Don't fight the current. Swim in a direction following the
shoreline. If unable to escape, face the shore and call or wave
for help. If tired, float or tread water until out of the rip
current.